sensor_id;sensor_type;location;lat;lon;timestamp;P1;durP1;ratioP1;P2;durP2;ratioP2
15126;SDS011;7664;52.008;4.748;2023-11-22T00:00:03;8.77;;;6.32;;
15126;SDS011;7664;52.008;4.748;2023-11-22T00:02:33;12.35;;;7.72;;
15126;SDS011;7664;52.008;4.748;2023-11-22T00:05:02;11.85;;;7.75;;
15126;SDS011;7664;52.008;4.748;2023-11-22T00:07:31;10.25;;;7.00;;
15126;SDS011;7664;52.008;4.748;2023-11-22T00:10:01;10.15;;;6.25;;
15126;SDS011;7664;52.008;4.748;2023-11-22T00:12:32;11.55;;;7.45;;
15126;SDS011;7664;52.008;4.748;2023-11-22T00:15:05;10.52;;;7.22;;
15126;SDS011;7664;52.008;4.748;2023-11-22T00:17:35;14.95;;;7.63;;
15126;SDS011;7664;52.008;4.748;2023-11-22T00:20:05;13.98;;;7.32;;
15126;SDS011;7664;52.008;4.748;2023-11-22T00:22:35;8.88;;;6.13;;
15126;SDS011;7664;52.008;4.748;2023-11-22T00:25:03;10.02;;;6.82;;
15126;SDS011;7664;52.008;4.748;2023-11-22T00:27:33;9.95;;;6.82;;
15126;SDS011;7664;52.008;4.748;2023-11-22T00:30:04;14.88;;;7.43;;
15126;SDS011;7664;52.008;4.748;2023-11-22T00:32:33;15.00;;;7.68;;
15126;SDS011;7664;52.008;4.748;2023-11-22T00:35:02;9.30;;;6.63;;
15126;SDS011;7664;52.008;4.748;2023-11-22T00:37:31;13.77;;;6.85;;
15126;SDS011;7664;52.008;4.748;2023-11-22T00:39:59;12.38;;;7.32;;
15126;SDS011;7664;52.008;4.748;2023-11-22T00:42:33;15.25;;;7.93;;
15126;SDS011;7664;52.008;4.748;2023-11-22T00:45:02;10.55;;;6.57;;
15126;SDS011;7664;52.008;4.748;2023-11-22T00:47:32;10.20;;;6.38;;
15126;SDS011;7664;52.008;4.748;2023-11-22T00:50:00;16.65;;;8.50;;
15126;SDS011;7664;52.008;4.748;2023-11-22T00:52:31;10.60;;;7.13;;
15126;SDS011;7664;52.008;4.748;2023-11-22T00:54:59;10.45;;;6.53;;
15126;SDS011;7664;52.008;4.748;2023-11-22T00:57:27;14.35;;;8.25;;
15126;SDS011;7664;52.008;4.748;2023-11-22T00:59:58;12.65;;;6.68;;
15126;SDS011;7664;52.008;4.748;2023-11-22T01:02:26;10.75;;;6.70;;
15126;SDS011;7664;52.008;4.748;2023-11-22T01:04:54;11.13;;;7.18;;
15126;SDS011;7664;52.008;4.748;2023-11-22T01:07:22;11.40;;;6.75;;
15126;SDS011;7664;52.008;4.748;2023-11-22T01:09:50;13.43;;;7.72;;
15126;SDS011;7664;52.008;4.748;2023-11-22T01:12:19;8.32;;;6.03;;
15126;SDS011;7664;52.008;4.748;2023-11-22T01:14:47;11.05;;;6.32;;
15126;SDS011;7664;52.008;4.748;2023-11-22T01:17:17;12.45;;;6.70;;
15126;SDS011;7664;52.008;4.748;2023-11-22T01:19:45;12.43;;;6.13;;
15126;SDS011;7664;52.008;4.748;2023-11-22T01:22:13;9.82;;;6.88;;
15126;SDS011;7664;52.008;4.748;2023-11-22T01:24:41;10.73;;;6.30;;
15126;SDS011;7664;52.008;4.748;2023-11-22T01:27:09;11.70;;;6.50;;
15126;SDS011;7664;52.008;4.748;2023-11-22T01:29:37;11.27;;;5.97;;
15126;SDS011;7664;52.008;4.748;2023-11-22T01:32:06;12.27;;;8.40;;
15126;SDS011;7664;52.008;4.748;2023-11-22T01:34:36;10.70;;;6.90;;
15126;SDS011;7664;52.008;4.748;2023-11-22T01:37:04;11.27;;;6.43;;
15126;SDS011;7664;52.008;4.748;2023-11-22T01:39:33;10.15;;;6.07;;
15126;SDS011;7664;52.008;4.748;2023-11-22T01:42:01;9.93;;;5.78;;
15126;SDS011;7664;52.008;4.748;2023-11-22T01:44:29;11.38;;;7.72;;
15126;SDS011;7664;52.008;4.748;2023-11-22T01:46:57;12.07;;;6.97;;
15126;SDS011;7664;52.008;4.748;2023-11-22T01:49:26;9.93;;;6.15;;
15126;SDS011;7664;52.008;4.748;2023-11-22T01:51:55;9.48;;;6.32;;
15126;SDS011;7664;52.008;4.748;2023-11-22T01:54:23;11.07;;;6.70;;
15126;SDS011;7664;52.008;4.748;2023-11-22T01:56:52;10.40;;;6.32;;
15126;SDS011;7664;52.008;4.748;2023-11-22T01:59:21;14.73;;;7.38;;
15126;SDS011;7664;52.008;4.748;2023-11-22T02:01:49;9.20;;;6.13;;
15126;SDS011;7664;52.008;4.748;2023-11-22T02:04:18;11.63;;;6.95;;
15126;SDS011;7664;52.008;4.748;2023-11-22T02:06:47;10.77;;;6.07;;
15126;SDS011;7664;52.008;4.748;2023-11-22T02:09:17;12.07;;;6.55;;
15126;SDS011;7664;52.008;4.748;2023-11-22T02:11:46;10.30;;;6.00;;
15126;SDS011;7664;52.008;4.748;2023-11-22T02:14:15;10.65;;;7.40;;
15126;SDS011;7664;52.008;4.748;2023-11-22T02:16:43;9.55;;;6.03;;
15126;SDS011;7664;52.008;4.748;2023-11-22T02:19:13;11.77;;;7.28;;
15126;SDS011;7664;52.008;4.748;2023-11-22T02:21:43;10.30;;;6.95;;
15126;SDS011;7664;52.008;4.748;2023-11-22T02:24:13;8.25;;;5.40;;
15126;SDS011;7664;52.008;4.748;2023-11-22T02:26:43;12.30;;;5.90;;
15126;SDS011;7664;52.008;4.748;2023-11-22T02:29:13;9.55;;;5.95;;
15126;SDS011;7664;52.008;4.748;2023-11-22T02:31:42;10.60;;;7.55;;
15126;SDS011;7664;52.008;4.748;2023-11-22T02:34:10;10.70;;;6.57;;
15126;SDS011;7664;52.008;4.748;2023-11-22T02:36:38;11.18;;;6.47;;
15126;SDS011;7664;52.008;4.748;2023-11-22T02:39:21;11.70;;;7.03;;
15126;SDS011;7664;52.008;4.748;2023-11-22T02:41:56;12.93;;;6.75;;
15126;SDS011;7664;52.008;4.748;2023-11-22T02:44:25;10.25;;;6.95;;
15126;SDS011;7664;52.008;4.748;2023-11-22T02:46:53;12.27;;;6.97;;
15126;SDS011;7664;52.008;4.748;2023-11-22T02:49:21;11.07;;;6.57;;
15126;SDS011;7664;52.008;4.748;2023-11-22T02:51:49;9.27;;;6.30;;
15126;SDS011;7664;52.008;4.748;2023-11-22T02:54:18;9.55;;;6.05;;
15126;SDS011;7664;52.008;4.748;2023-11-22T02:56:47;10.57;;;7.57;;
15126;SDS011;7664;52.008;4.748;2023-11-22T02:59:15;12.88;;;7.40;;
15126;SDS011;7664;52.008;4.748;2023-11-22T03:01:45;8.77;;;5.25;;
15126;SDS011;7664;52.008;4.748;2023-11-22T03:04:13;10.20;;;6.55;;
15126;SDS011;7664;52.008;4.748;2023-11-22T03:06:41;10.52;;;6.85;;
15126;SDS011;7664;52.008;4.748;2023-11-22T03:09:09;10.43;;;6.20;;
15126;SDS011;7664;52.008;4.748;2023-11-22T03:11:37;9.98;;;6.78;;
15126;SDS011;7664;52.008;4.748;2023-11-22T03:14:07;10.82;;;6.07;;
15126;SDS011;7664;52.008;4.748;2023-11-22T03:16:38;11.20;;;6.45;;
15126;SDS011;7664;52.008;4.748;2023-11-22T03:19:07;10.93;;;6.80;;
15126;SDS011;7664;52.008;4.748;2023-11-22T03:21:36;11.80;;;6.75;;
15126;SDS011;7664;52.008;4.748;2023-11-22T03:24:06;11.77;;;6.55;;
15126;SDS011;7664;52.008;4.748;2023-11-22T03:26:35;10.20;;;6.65;;
15126;SDS011;7664;52.008;4.748;2023-11-22T03:29:03;14.23;;;7.72;;
15126;SDS011;7664;52.008;4.748;2023-11-22T03:31:32;9.73;;;7.03;;
15126;SDS011;7664;52.008;4.748;2023-11-22T03:34:00;10.00;;;6.88;;
15126;SDS011;7664;52.008;4.748;2023-11-22T03:36:28;12.40;;;7.97;;
15126;SDS011;7664;52.008;4.748;2023-11-22T03:38:58;9.90;;;6.70;;
15126;SDS011;7664;52.008;4.748;2023-11-22T03:41:26;9.63;;;6.25;;
15126;SDS011;7664;52.008;4.748;2023-11-22T03:43:54;9.73;;;6.78;;
15126;SDS011;7664;52.008;4.748;2023-11-22T03:46:22;10.55;;;6.88;;
15126;SDS011;7664;52.008;4.748;2023-11-22T03:48:51;14.13;;;8.27;;
15126;SDS011;7664;52.008;4.748;2023-11-22T03:51:19;11.52;;;8.40;;
15126;SDS011;7664;52.008;4.748;2023-11-22T03:53:47;11.20;;;7.22;;
15126;SDS011;7664;52.008;4.748;2023-11-22T03:56:15;11.43;;;6.38;;
15126;SDS011;7664;52.008;4.748;2023-11-22T03:58:43;11.52;;;7.18;;
15126;SDS011;7664;52.008;4.748;2023-11-22T04:01:11;10.50;;;7.20;;
15126;SDS011;7664;52.008;4.748;2023-11-22T04:03:40;10.95;;;6.97;;
15126;SDS011;7664;52.008;4.748;2023-11-22T04:06:10;11.52;;;7.35;;
15126;SDS011;7664;52.008;4.748;2023-11-22T04:08:38;11.13;;;7.10;;
15126;SDS011;7664;52.008;4.748;2023-11-22T04:11:06;12.15;;;7.82;;
15126;SDS011;7664;52.008;4.748;2023-11-22T04:13:34;14.13;;;7.45;;
15126;SDS011;7664;52.008;4.748;2023-11-22T04:16:03;11.65;;;6.93;;
15126;SDS011;7664;52.008;4.748;2023-11-22T04:18:35;10.52;;;7.85;;
15126;SDS011;7664;52.008;4.748;2023-11-22T04:21:04;11.85;;;7.15;;
15126;SDS011;7664;52.008;4.748;2023-11-22T04:23:33;11.00;;;7.32;;
15126;SDS011;7664;52.008;4.748;2023-11-22T04:26:02;12.30;;;7.50;;
15126;SDS011;7664;52.008;4.748;2023-11-22T04:28:33;11.93;;;7.85;;
15126;SDS011;7664;52.008;4.748;2023-11-22T04:31:01;11.13;;;7.22;;
15126;SDS011;7664;52.008;4.748;2023-11-22T04:33:30;11.07;;;7.57;;
15126;SDS011;7664;52.008;4.748;2023-11-22T04:35:58;10.95;;;7.10;;
15126;SDS011;7664;52.008;4.748;2023-11-22T04:38:26;11.27;;;7.60;;
15126;SDS011;7664;52.008;4.748;2023-11-22T04:40:56;15.40;;;8.93;;
15126;SDS011;7664;52.008;4.748;2023-11-22T04:43:24;13.35;;;8.90;;
15126;SDS011;7664;52.008;4.748;2023-11-22T04:45:53;13.38;;;8.07;;
15126;SDS011;7664;52.008;4.748;2023-11-22T04:48:21;11.85;;;7.85;;
15126;SDS011;7664;52.008;4.748;2023-11-22T04:50:49;13.23;;;7.90;;
15126;SDS011;7664;52.008;4.748;2023-11-22T04:53:18;12.38;;;8.25;;
15126;SDS011;7664;52.008;4.748;2023-11-22T04:55:46;15.48;;;8.85;;
15126;SDS011;7664;52.008;4.748;2023-11-22T04:58:17;12.23;;;7.32;;
15126;SDS011;7664;52.008;4.748;2023-11-22T05:00:44;12.07;;;7.15;;
15126;SDS011;7664;52.008;4.748;2023-11-22T05:03:12;12.32;;;7.65;;
15126;SDS011;7664;52.008;4.748;2023-11-22T05:05:41;12.85;;;7.78;;
15126;SDS011;7664;52.008;4.748;2023-11-22T05:08:09;11.98;;;7.97;;
15126;SDS011;7664;52.008;4.748;2023-11-22T05:10:37;12.60;;;7.80;;
15126;SDS011;7664;52.008;4.748;2023-11-22T05:13:06;15.60;;;8.90;;
15126;SDS011;7664;52.008;4.748;2023-11-22T05:15:36;14.00;;;8.77;;
15126;SDS011;7664;52.008;4.748;2023-11-22T05:18:05;15.82;;;9.35;;
15126;SDS011;7664;52.008;4.748;2023-11-22T05:20:33;13.30;;;8.40;;
15126;SDS011;7664;52.008;4.748;2023-11-22T05:23:01;11.95;;;7.95;;
15126;SDS011;7664;52.008;4.748;2023-11-22T05:25:30;13.95;;;9.82;;
15126;SDS011;7664;52.008;4.748;2023-11-22T05:27:58;12.07;;;7.78;;
15126;SDS011;7664;52.008;4.748;2023-11-22T05:30:26;12.30;;;7.80;;
15126;SDS011;7664;52.008;4.748;2023-11-22T05:32:58;12.35;;;7.82;;
15126;SDS011;7664;52.008;4.748;2023-11-22T05:35:26;10.73;;;7.03;;
15126;SDS011;7664;52.008;4.748;2023-11-22T05:37:54;11.95;;;8.00;;
15126;SDS011;7664;52.008;4.748;2023-11-22T05:40:23;11.23;;;7.65;;
15126;SDS011;7664;52.008;4.748;2023-11-22T05:42:51;11.50;;;8.30;;
15126;SDS011;7664;52.008;4.748;2023-11-22T05:45:19;12.70;;;8.32;;
15126;SDS011;7664;52.008;4.748;2023-11-22T05:47:47;11.38;;;7.80;;
15126;SDS011;7664;52.008;4.748;2023-11-22T05:50:17;13.52;;;7.82;;
15126;SDS011;7664;52.008;4.748;2023-11-22T05:52:45;13.75;;;8.68;;
15126;SDS011;7664;52.008;4.748;2023-11-22T05:55:13;16.52;;;9.05;;
15126;SDS011;7664;52.008;4.748;2023-11-22T05:57:41;13.93;;;7.88;;
15126;SDS011;7664;52.008;4.748;2023-11-22T06:00:10;13.68;;;8.57;;
15126;SDS011;7664;52.008;4.748;2023-11-22T06:02:40;13.52;;;8.43;;
15126;SDS011;7664;52.008;4.748;2023-11-22T06:05:08;14.65;;;8.18;;
15126;SDS011;7664;52.008;4.748;2023-11-22T06:07:39;12.00;;;7.55;;
15126;SDS011;7664;52.008;4.748;2023-11-22T06:10:07;11.63;;;7.88;;
15126;SDS011;7664;52.008;4.748;2023-11-22T06:12:36;13.65;;;9.40;;
15126;SDS011;7664;52.008;4.748;2023-11-22T06:15:04;12.50;;;9.65;;
15126;SDS011;7664;52.008;4.748;2023-11-22T06:17:34;13.68;;;8.93;;
15126;SDS011;7664;52.008;4.748;2023-11-22T06:20:02;14.27;;;7.95;;
15126;SDS011;7664;52.008;4.748;2023-11-22T06:22:30;13.23;;;8.00;;
15126;SDS011;7664;52.008;4.748;2023-11-22T06:25:00;13.27;;;8.50;;
15126;SDS011;7664;52.008;4.748;2023-11-22T06:27:28;13.75;;;8.27;;
15126;SDS011;7664;52.008;4.748;2023-11-22T06:29:56;13.93;;;9.10;;
15126;SDS011;7664;52.008;4.748;2023-11-22T06:32:24;14.27;;;8.77;;
15126;SDS011;7664;52.008;4.748;2023-11-22T06:34:52;12.73;;;8.55;;
15126;SDS011;7664;52.008;4.748;2023-11-22T06:37:20;14.07;;;9.38;;
15126;SDS011;7664;52.008;4.748;2023-11-22T06:39:47;12.73;;;8.25;;
15126;SDS011;7664;52.008;4.748;2023-11-22T06:42:16;13.38;;;8.65;;
15126;SDS011;7664;52.008;4.748;2023-11-22T06:44:45;15.57;;;8.60;;
15126;SDS011;7664;52.008;4.748;2023-11-22T06:47:14;13.95;;;8.63;;
15126;SDS011;7664;52.008;4.748;2023-11-22T06:49:43;13.38;;;8.50;;
15126;SDS011;7664;52.008;4.748;2023-11-22T06:52:11;12.43;;;8.13;;
15126;SDS011;7664;52.008;4.748;2023-11-22T06:54:39;13.15;;;7.78;;
15126;SDS011;7664;52.008;4.748;2023-11-22T06:57:08;13.20;;;9.10;;
15126;SDS011;7664;52.008;4.748;2023-11-22T06:59:37;12.57;;;8.00;;
15126;SDS011;7664;52.008;4.748;2023-11-22T07:02:06;17.17;;;8.85;;
15126;SDS011;7664;52.008;4.748;2023-11-22T07:04:35;13.13;;;9.05;;
15126;SDS011;7664;52.008;4.748;2023-11-22T07:07:03;12.80;;;7.72;;
15126;SDS011;7664;52.008;4.748;2023-11-22T07:09:31;14.13;;;8.10;;
15126;SDS011;7664;52.008;4.748;2023-11-22T07:12:00;13.30;;;8.35;;
15126;SDS011;7664;52.008;4.748;2023-11-22T07:14:28;14.93;;;8.25;;
15126;SDS011;7664;52.008;4.748;2023-11-22T07:16:58;13.10;;;7.32;;
15126;SDS011;7664;52.008;4.748;2023-11-22T07:19:26;12.68;;;7.10;;
15126;SDS011;7664;52.008;4.748;2023-11-22T07:21:54;15.20;;;8.35;;
15126;SDS011;7664;52.008;4.748;2023-11-22T07:24:22;13.55;;;8.00;;
15126;SDS011;7664;52.008;4.748;2023-11-22T07:26:50;15.15;;;8.70;;
15126;SDS011;7664;52.008;4.748;2023-11-22T07:29:19;13.98;;;8.02;;
15126;SDS011;7664;52.008;4.748;2023-11-22T07:31:47;12.93;;;9.73;;
15126;SDS011;7664;52.008;4.748;2023-11-22T07:34:17;12.95;;;9.25;;
15126;SDS011;7664;52.008;4.748;2023-11-22T07:36:45;12.07;;;7.30;;
15126;SDS011;7664;52.008;4.748;2023-11-22T07:39:13;15.43;;;8.25;;
15126;SDS011;7664;52.008;4.748;2023-11-22T07:41:45;13.88;;;8.52;;
15126;SDS011;7664;52.008;4.748;2023-11-22T07:44:15;11.77;;;8.38;;
15126;SDS011;7664;52.008;4.748;2023-11-22T07:46:44;13.73;;;7.90;;
15126;SDS011;7664;52.008;4.748;2023-11-22T07:49:12;12.80;;;9.23;;
15126;SDS011;7664;52.008;4.748;2023-11-22T07:51:42;14.15;;;10.27;;
15126;SDS011;7664;52.008;4.748;2023-11-22T07:54:12;13.35;;;9.50;;
15126;SDS011;7664;52.008;4.748;2023-11-22T07:56:41;14.10;;;10.05;;
15126;SDS011;7664;52.008;4.748;2023-11-22T07:59:10;14.52;;;10.65;;
15126;SDS011;7664;52.008;4.748;2023-11-22T08:01:38;13.63;;;9.95;;
15126;SDS011;7664;52.008;4.748;2023-11-22T08:04:06;15.27;;;10.25;;
15126;SDS011;7664;52.008;4.748;2023-11-22T08:06:36;14.05;;;9.15;;
15126;SDS011;7664;52.008;4.748;2023-11-22T08:09:06;18.75;;;9.25;;
15126;SDS011;7664;52.008;4.748;2023-11-22T08:11:35;18.98;;;10.18;;
15126;SDS011;7664;52.008;4.748;2023-11-22T08:14:04;15.30;;;9.77;;
15126;SDS011;7664;52.008;4.748;2023-11-22T08:16:32;17.15;;;9.02;;
15126;SDS011;7664;52.008;4.748;2023-11-22T08:19:04;18.20;;;8.52;;
15126;SDS011;7664;52.008;4.748;2023-11-22T08:21:34;14.75;;;9.00;;
15126;SDS011;7664;52.008;4.748;2023-11-22T08:24:02;13.85;;;8.25;;
15126;SDS011;7664;52.008;4.748;2023-11-22T08:26:32;15.35;;;9.65;;
15126;SDS011;7664;52.008;4.748;2023-11-22T08:29:01;16.13;;;9.90;;
15126;SDS011;7664;52.008;4.748;2023-11-22T08:31:30;16.20;;;9.38;;
15126;SDS011;7664;52.008;4.748;2023-11-22T08:33:58;16.35;;;9.65;;
15126;SDS011;7664;52.008;4.748;2023-11-22T08:36:26;14.70;;;8.57;;
15126;SDS011;7664;52.008;4.748;2023-11-22T08:38:55;17.40;;;9.38;;
15126;SDS011;7664;52.008;4.748;2023-11-22T08:41:26;16.92;;;9.45;;
15126;SDS011;7664;52.008;4.748;2023-11-22T08:43:57;14.43;;;9.15;;
15126;SDS011;7664;52.008;4.748;2023-11-22T08:46:26;14.55;;;8.85;;
15126;SDS011;7664;52.008;4.748;2023-11-22T08:48:54;16.95;;;9.45;;
15126;SDS011;7664;52.008;4.748;2023-11-22T08:51:23;14.73;;;9.00;;
15126;SDS011;7664;52.008;4.748;2023-11-22T08:53:51;14.15;;;8.85;;
15126;SDS011;7664;52.008;4.748;2023-11-22T08:56:19;17.15;;;9.73;;
15126;SDS011;7664;52.008;4.748;2023-11-22T08:58:49;15.43;;;9.48;;
15126;SDS011;7664;52.008;4.748;2023-11-22T09:01:19;15.75;;;9.55;;
15126;SDS011;7664;52.008;4.748;2023-11-22T09:03:48;14.88;;;9.30;;
15126;SDS011;7664;52.008;4.748;2023-11-22T09:06:17;15.38;;;9.75;;
15126;SDS011;7664;52.008;4.748;2023-11-22T09:08:45;15.93;;;9.25;;
15126;SDS011;7664;52.008;4.748;2023-11-22T09:11:15;14.05;;;8.82;;
15126;SDS011;7664;52.008;4.748;2023-11-22T09:13:46;15.30;;;10.25;;
15126;SDS011;7664;52.008;4.748;2023-11-22T09:16:16;17.27;;;10.25;;
15126;SDS011;7664;52.008;4.748;2023-11-22T09:18:47;16.60;;;11.35;;
15126;SDS011;7664;52.008;4.748;2023-11-22T09:21:15;15.90;;;9.75;;
15126;SDS011;7664;52.008;4.748;2023-11-22T09:23:43;16.65;;;10.18;;
15126;SDS011;7664;52.008;4.748;2023-11-22T09:26:14;16.00;;;9.88;;
15126;SDS011;7664;52.008;4.748;2023-11-22T09:28:42;19.17;;;10.95;;
15126;SDS011;7664;52.008;4.748;2023-11-22T09:31:10;18.33;;;11.35;;
15126;SDS011;7664;52.008;4.748;2023-11-22T09:33:44;16.85;;;9.70;;
15126;SDS011;7664;52.008;4.748;2023-11-22T09:36:14;15.38;;;9.38;;
15126;SDS011;7664;52.008;4.748;2023-11-22T09:38:44;15.18;;;9.63;;
15126;SDS011;7664;52.008;4.748;2023-11-22T09:41:13;15.40;;;10.68;;
15126;SDS011;7664;52.008;4.748;2023-11-22T09:43:42;16.58;;;9.82;;
15126;SDS011;7664;52.008;4.748;2023-11-22T09:46:12;17.02;;;10.80;;
15126;SDS011;7664;52.008;4.748;2023-11-22T09:48:41;18.83;;;10.43;;
15126;SDS011;7664;52.008;4.748;2023-11-22T09:51:18;15.07;;;9.60;;
15126;SDS011;7664;52.008;4.748;2023-11-22T09:53:52;17.15;;;11.15;;
15126;SDS011;7664;52.008;4.748;2023-11-22T09:56:25;15.73;;;10.80;;
15126;SDS011;7664;52.008;4.748;2023-11-22T09:58:54;17.50;;;11.00;;
15126;SDS011;7664;52.008;4.748;2023-11-22T10:01:27;15.23;;;9.93;;
15126;SDS011;7664;52.008;4.748;2023-11-22T10:03:57;17.95;;;10.63;;
15126;SDS011;7664;52.008;4.748;2023-11-22T10:06:28;17.02;;;10.60;;
15126;SDS011;7664;52.008;4.748;2023-11-22T10:09:00;17.85;;;10.70;;
15126;SDS011;7664;52.008;4.748;2023-11-22T10:11:31;17.20;;;10.93;;
15126;SDS011;7664;52.008;4.748;2023-11-22T10:13:59;22.02;;;12.18;;
15126;SDS011;7664;52.008;4.748;2023-11-22T10:16:27;16.23;;;10.02;;
15126;SDS011;7664;52.008;4.748;2023-11-22T10:18:55;21.73;;;12.25;;
15126;SDS011;7664;52.008;4.748;2023-11-22T10:21:26;20.85;;;12.48;;
15126;SDS011;7664;52.008;4.748;2023-11-22T10:23:59;20.10;;;11.93;;
15126;SDS011;7664;52.008;4.748;2023-11-22T10:26:29;21.05;;;11.73;;
15126;SDS011;7664;52.008;4.748;2023-11-22T10:28:58;19.17;;;11.20;;
15126;SDS011;7664;52.008;4.748;2023-11-22T10:31:26;18.65;;;12.10;;
15126;SDS011;7664;52.008;4.748;2023-11-22T10:33:57;18.48;;;12.18;;
15126;SDS011;7664;52.008;4.748;2023-11-22T10:36:25;21.13;;;12.40;;
15126;SDS011;7664;52.008;4.748;2023-11-22T10:38:54;18.52;;;11.35;;
15126;SDS011;7664;52.008;4.748;2023-11-22T10:41:25;21.35;;;11.20;;
15126;SDS011;7664;52.008;4.748;2023-11-22T10:43:54;18.42;;;12.07;;
15126;SDS011;7664;52.008;4.748;2023-11-22T10:46:24;19.83;;;12.40;;
15126;SDS011;7664;52.008;4.748;2023-11-22T10:48:57;22.38;;;13.00;;
15126;SDS011;7664;52.008;4.748;2023-11-22T10:51:26;19.88;;;11.43;;
15126;SDS011;7664;52.008;4.748;2023-11-22T10:53:59;21.85;;;12.40;;
15126;SDS011;7664;52.008;4.748;2023-11-22T10:56:32;15.98;;;10.77;;
15126;SDS011;7664;52.008;4.748;2023-11-22T10:59:09;17.58;;;11.52;;
15126;SDS011;7664;52.008;4.748;2023-11-22T11:01:40;18.13;;;11.43;;
15126;SDS011;7664;52.008;4.748;2023-11-22T11:04:16;17.63;;;11.20;;
15126;SDS011;7664;52.008;4.748;2023-11-22T11:06:50;20.23;;;11.77;;
15126;SDS011;7664;52.008;4.748;2023-11-22T11:09:21;20.42;;;13.25;;
15126;SDS011;7664;52.008;4.748;2023-11-22T11:11:54;20.73;;;13.35;;
15126;SDS011;7664;52.008;4.748;2023-11-22T11:14:23;21.42;;;12.45;;
15126;SDS011;7664;52.008;4.748;2023-11-22T11:16:52;19.05;;;11.75;;
15126;SDS011;7664;52.008;4.748;2023-11-22T11:19:25;20.42;;;12.40;;
15126;SDS011;7664;52.008;4.748;2023-11-22T11:21:54;21.33;;;11.75;;
15126;SDS011;7664;52.008;4.748;2023-11-22T11:24:23;20.50;;;11.27;;
15126;SDS011;7664;52.008;4.748;2023-11-22T11:26:51;16.67;;;11.07;;
15126;SDS011;7664;52.008;4.748;2023-11-22T11:29:32;20.70;;;12.90;;
15126;SDS011;7664;52.008;4.748;2023-11-22T11:32:02;19.33;;;11.10;;
15126;SDS011;7664;52.008;4.748;2023-11-22T11:34:30;19.15;;;12.20;;
15126;SDS011;7664;52.008;4.748;2023-11-22T11:36:59;22.08;;;13.13;;
15126;SDS011;7664;52.008;4.748;2023-11-22T11:39:27;18.65;;;11.68;;
15126;SDS011;7664;52.008;4.748;2023-11-22T11:42:07;20.15;;;12.00;;
15126;SDS011;7664;52.008;4.748;2023-11-22T11:44:52;19.77;;;12.10;;
15126;SDS011;7664;52.008;4.748;2023-11-22T11:47:34;17.58;;;11.23;;
15126;SDS011;7664;52.008;4.748;2023-11-22T11:50:01;19.27;;;11.52;;
15126;SDS011;7664;52.008;4.748;2023-11-22T11:52:30;18.83;;;12.35;;
15126;SDS011;7664;52.008;4.748;2023-11-22T11:54:58;15.88;;;11.57;;
15126;SDS011;7664;52.008;4.748;2023-11-22T11:57:30;15.70;;;11.27;;
15126;SDS011;7664;52.008;4.748;2023-11-22T12:00:00;16.67;;;12.00;;
15126;SDS011;7664;52.008;4.748;2023-11-22T12:02:36;18.52;;;11.18;;
15126;SDS011;7664;52.008;4.748;2023-11-22T12:05:05;17.77;;;11.30;;
15126;SDS011;7664;52.008;4.748;2023-11-22T12:07:35;20.27;;;10.70;;
15126;SDS011;7664;52.008;4.748;2023-11-22T12:10:04;16.63;;;11.45;;
15126;SDS011;7664;52.008;4.748;2023-11-22T12:12:33;18.35;;;11.30;;
15126;SDS011;7664;52.008;4.748;2023-11-22T12:15:04;16.35;;;11.40;;
15126;SDS011;7664;52.008;4.748;2023-11-22T12:17:33;18.13;;;10.98;;
15126;SDS011;7664;52.008;4.748;2023-11-22T12:20:09;15.75;;;9.95;;
15126;SDS011;7664;52.008;4.748;2023-11-22T12:22:41;12.73;;;9.07;;
15126;SDS011;7664;52.008;4.748;2023-11-22T12:25:10;14.10;;;9.63;;
15126;SDS011;7664;52.008;4.748;2023-11-22T12:27:39;14.63;;;9.02;;
15126;SDS011;7664;52.008;4.748;2023-11-22T12:30:22;15.23;;;9.13;;
15126;SDS011;7664;52.008;4.748;2023-11-22T12:32:55;14.38;;;8.98;;
15126;SDS011;7664;52.008;4.748;2023-11-22T12:35:24;13.60;;;8.65;;
15126;SDS011;7664;52.008;4.748;2023-11-22T12:37:52;14.32;;;8.60;;
15126;SDS011;7664;52.008;4.748;2023-11-22T12:40:21;11.35;;;7.32;;
15126;SDS011;7664;52.008;4.748;2023-11-22T12:42:49;11.00;;;7.53;;
15126;SDS011;7664;52.008;4.748;2023-11-22T12:45:21;15.80;;;8.50;;
15126;SDS011;7664;52.008;4.748;2023-11-22T12:47:51;12.95;;;8.93;;
15126;SDS011;7664;52.008;4.748;2023-11-22T12:50:29;17.90;;;9.45;;
15126;SDS011;7664;52.008;4.748;2023-11-22T12:52:58;13.95;;;8.73;;
15126;SDS011;7664;52.008;4.748;2023-11-22T12:55:26;11.73;;;7.10;;
15126;SDS011;7664;52.008;4.748;2023-11-22T12:57:57;11.57;;;7.63;;
15126;SDS011;7664;52.008;4.748;2023-11-22T13:00:30;10.68;;;7.28;;
15126;SDS011;7664;52.008;4.748;2023-11-22T13:02:58;12.85;;;8.63;;
15126;SDS011;7664;52.008;4.748;2023-11-22T13:05:30;11.95;;;7.05;;
15126;SDS011;7664;52.008;4.748;2023-11-22T13:07:58;11.30;;;6.82;;
15126;SDS011;7664;52.008;4.748;2023-11-22T13:10:28;13.55;;;8.27;;
15126;SDS011;7664;52.008;4.748;2023-11-22T13:12:56;12.75;;;7.55;;
15126;SDS011;7664;52.008;4.748;2023-11-22T13:15:25;12.95;;;7.38;;
15126;SDS011;7664;52.008;4.748;2023-11-22T13:17:54;14.10;;;7.88;;
15126;SDS011;7664;52.008;4.748;2023-11-22T13:20:23;13.07;;;8.70;;
15126;SDS011;7664;52.008;4.748;2023-11-22T13:22:52;12.63;;;8.65;;
15126;SDS011;7664;52.008;4.748;2023-11-22T13:25:20;10.25;;;7.15;;
15126;SDS011;7664;52.008;4.748;2023-11-22T13:27:50;11.25;;;7.28;;
15126;SDS011;7664;52.008;4.748;2023-11-22T13:30:19;10.63;;;7.30;;
15126;SDS011;7664;52.008;4.748;2023-11-22T13:32:49;12.85;;;8.15;;
15126;SDS011;7664;52.008;4.748;2023-11-22T13:35:19;11.98;;;8.05;;
15126;SDS011;7664;52.008;4.748;2023-11-22T13:37:48;14.80;;;9.15;;
15126;SDS011;7664;52.008;4.748;2023-11-22T13:40:17;13.30;;;8.52;;
15126;SDS011;7664;52.008;4.748;2023-11-22T13:42:48;13.57;;;9.45;;
15126;SDS011;7664;52.008;4.748;2023-11-22T13:45:19;13.82;;;8.85;;
15126;SDS011;7664;52.008;4.748;2023-11-22T13:47:48;14.52;;;9.50;;
15126;SDS011;7664;52.008;4.748;2023-11-22T13:50:20;14.95;;;10.18;;
15126;SDS011;7664;52.008;4.748;2023-11-22T13:52:50;13.60;;;9.50;;
15126;SDS011;7664;52.008;4.748;2023-11-22T13:55:19;13.50;;;9.18;;
15126;SDS011;7664;52.008;4.748;2023-11-22T13:57:49;13.50;;;8.93;;
15126;SDS011;7664;52.008;4.748;2023-11-22T14:00:18;14.43;;;9.50;;
15126;SDS011;7664;52.008;4.748;2023-11-22T14:02:49;16.88;;;9.15;;
15126;SDS011;7664;52.008;4.748;2023-11-22T14:05:20;14.73;;;9.80;;
15126;SDS011;7664;52.008;4.748;2023-11-22T14:07:49;16.08;;;10.50;;
15126;SDS011;7664;52.008;4.748;2023-11-22T14:10:18;15.07;;;10.40;;
15126;SDS011;7664;52.008;4.748;2023-11-22T14:12:48;16.13;;;10.43;;
15126;SDS011;7664;52.008;4.748;2023-11-22T14:15:17;16.00;;;11.65;;
15126;SDS011;7664;52.008;4.748;2023-11-22T14:17:45;17.10;;;12.07;;
15126;SDS011;7664;52.008;4.748;2023-11-22T14:20:17;19.83;;;13.10;;
15126;SDS011;7664;52.008;4.748;2023-11-22T14:22:48;22.33;;;13.88;;
15126;SDS011;7664;52.008;4.748;2023-11-22T14:25:17;20.55;;;14.00;;
15126;SDS011;7664;52.008;4.748;2023-11-22T14:27:46;22.95;;;14.13;;
15126;SDS011;7664;52.008;4.748;2023-11-22T14:30:19;22.30;;;14.77;;
15126;SDS011;7664;52.008;4.748;2023-11-22T14:32:48;21.35;;;14.63;;
15126;SDS011;7664;52.008;4.748;2023-11-22T14:35:17;25.48;;;16.20;;
15126;SDS011;7664;52.008;4.748;2023-11-22T14:37:46;22.00;;;14.55;;
15126;SDS011;7664;52.008;4.748;2023-11-22T14:40:15;23.67;;;15.35;;
15126;SDS011;7664;52.008;4.748;2023-11-22T14:42:46;23.83;;;15.25;;
15126;SDS011;7664;52.008;4.748;2023-11-22T14:45:16;24.05;;;14.85;;
15126;SDS011;7664;52.008;4.748;2023-11-22T14:47:46;24.45;;;15.68;;
15126;SDS011;7664;52.008;4.748;2023-11-22T14:50:17;24.80;;;16.60;;
15126;SDS011;7664;52.008;4.748;2023-11-22T14:52:46;26.35;;;16.55;;
15126;SDS011;7664;52.008;4.748;2023-11-22T14:55:17;27.50;;;17.27;;
15126;SDS011;7664;52.008;4.748;2023-11-22T14:57:47;26.13;;;16.50;;